sensor_id;sensor_type;location;lat;lon;timestamp;P1;durP1;ratioP1;P2;durP2;ratioP2
54835;SDS011;43486;43.574;1.476;2023-02-26T00:02:17;8.35;;;3.10;;
54835;SDS011;43486;43.574;1.476;2023-02-26T00:04:43;5.13;;;2.20;;
54835;SDS011;43486;43.574;1.476;2023-02-26T00:07:08;4.00;;;2.33;;
54835;SDS011;43486;43.574;1.476;2023-02-26T00:09:34;4.70;;;1.80;;
54835;SDS011;43486;43.574;1.476;2023-02-26T00:11:59;4.65;;;2.22;;
54835;SDS011;43486;43.574;1.476;2023-02-26T00:14:25;3.90;;;2.38;;
54835;SDS011;43486;43.574;1.476;2023-02-26T00:16:55;4.63;;;2.53;;
54835;SDS011;43486;43.574;1.476;2023-02-26T00:19:32;6.25;;;3.45;;
54835;SDS011;43486;43.574;1.476;2023-02-26T00:21:57;5.13;;;2.13;;
54835;SDS011;43486;43.574;1.476;2023-02-26T00:24:23;5.50;;;2.53;;
54835;SDS011;43486;43.574;1.476;2023-02-26T00:26:48;5.72;;;2.45;;
54835;SDS011;43486;43.574;1.476;2023-02-26T00:29:14;4.18;;;2.22;;
54835;SDS011;43486;43.574;1.476;2023-02-26T00:31:39;4.97;;;2.17;;
54835;SDS011;43486;43.574;1.476;2023-02-26T00:34:05;6.57;;;2.28;;
54835;SDS011;43486;43.574;1.476;2023-02-26T00:42:01;3.28;;;2.22;;
54835;SDS011;43486;43.574;1.476;2023-02-26T00:44:27;4.60;;;2.00;;
54835;SDS011;43486;43.574;1.476;2023-02-26T00:55:23;3.50;;;2.25;;
54835;SDS011;43486;43.574;1.476;2023-02-26T00:57:49;4.43;;;2.33;;
54835;SDS011;43486;43.574;1.476;2023-02-26T01:00:14;6.97;;;2.85;;
54835;SDS011;43486;43.574;1.476;2023-02-26T01:02:40;5.63;;;2.90;;
54835;SDS011;43486;43.574;1.476;2023-02-26T01:05:06;7.03;;;2.30;;
54835;SDS011;43486;43.574;1.476;2023-02-26T01:07:37;4.13;;;1.80;;
54835;SDS011;43486;43.574;1.476;2023-02-26T01:10:25;5.53;;;2.33;;
54835;SDS011;43486;43.574;1.476;2023-02-26T01:12:50;3.78;;;1.80;;
54835;SDS011;43486;43.574;1.476;2023-02-26T01:15:16;5.47;;;2.20;;
54835;SDS011;43486;43.574;1.476;2023-02-26T01:18:17;4.13;;;2.10;;
54835;SDS011;43486;43.574;1.476;2023-02-26T01:20:44;4.28;;;2.30;;
54835;SDS011;43486;43.574;1.476;2023-02-26T01:23:16;5.22;;;2.80;;
54835;SDS011;43486;43.574;1.476;2023-02-26T01:25:46;5.63;;;2.72;;
54835;SDS011;43486;43.574;1.476;2023-02-26T01:28:14;5.55;;;2.78;;
54835;SDS011;43486;43.574;1.476;2023-02-26T01:30:40;3.45;;;2.00;;
54835;SDS011;43486;43.574;1.476;2023-02-26T01:33:12;4.28;;;2.35;;
54835;SDS011;43486;43.574;1.476;2023-02-26T01:35:50;3.97;;;2.20;;
54835;SDS011;43486;43.574;1.476;2023-02-26T01:41:11;8.57;;;3.00;;
54835;SDS011;43486;43.574;1.476;2023-02-26T01:49:03;6.38;;;2.50;;
54835;SDS011;43486;43.574;1.476;2023-02-26T01:54:15;4.57;;;2.47;;
54835;SDS011;43486;43.574;1.476;2023-02-26T01:56:43;5.30;;;2.50;;
54835;SDS011;43486;43.574;1.476;2023-02-26T01:59:10;7.82;;;3.05;;
54835;SDS011;43486;43.574;1.476;2023-02-26T02:01:38;5.25;;;2.38;;
54835;SDS011;43486;43.574;1.476;2023-02-26T02:04:05;5.90;;;2.53;;
54835;SDS011;43486;43.574;1.476;2023-02-26T02:06:32;4.65;;;2.25;;
54835;SDS011;43486;43.574;1.476;2023-02-26T02:08:58;4.43;;;2.00;;
54835;SDS011;43486;43.574;1.476;2023-02-26T02:11:23;4.43;;;2.05;;
54835;SDS011;43486;43.574;1.476;2023-02-26T02:27:24;4.43;;;2.47;;
54835;SDS011;43486;43.574;1.476;2023-02-26T02:35:17;4.35;;;2.33;;
54835;SDS011;43486;43.574;1.476;2023-02-26T02:37:56;6.25;;;3.70;;
54835;SDS011;43486;43.574;1.476;2023-02-26T02:40:32;4.47;;;1.77;;
54835;SDS011;43486;43.574;1.476;2023-02-26T02:43:07;5.53;;;2.22;;
54835;SDS011;43486;43.574;1.476;2023-02-26T02:45:46;4.45;;;2.45;;
54835;SDS011;43486;43.574;1.476;2023-02-26T02:48:15;7.15;;;3.03;;
54835;SDS011;43486;43.574;1.476;2023-02-26T02:50:52;3.88;;;1.67;;
54835;SDS011;43486;43.574;1.476;2023-02-26T02:53:25;4.85;;;2.28;;
54835;SDS011;43486;43.574;1.476;2023-02-26T02:58:38;5.72;;;2.75;;
54835;SDS011;43486;43.574;1.476;2023-02-26T03:01:08;3.53;;;1.95;;
54835;SDS011;43486;43.574;1.476;2023-02-26T03:03:42;4.00;;;1.88;;
54835;SDS011;43486;43.574;1.476;2023-02-26T03:06:30;4.68;;;2.55;;
54835;SDS011;43486;43.574;1.476;2023-02-26T03:08:56;4.93;;;2.47;;
54835;SDS011;43486;43.574;1.476;2023-02-26T03:11:22;4.70;;;2.17;;
54835;SDS011;43486;43.574;1.476;2023-02-26T03:13:48;5.10;;;2.40;;
54835;SDS011;43486;43.574;1.476;2023-02-26T03:19:20;8.95;;;2.30;;
54835;SDS011;43486;43.574;1.476;2023-02-26T03:22:04;4.07;;;2.20;;
54835;SDS011;43486;43.574;1.476;2023-02-26T03:24:39;3.55;;;1.95;;
54835;SDS011;43486;43.574;1.476;2023-02-26T03:29:39;8.52;;;3.45;;
54835;SDS011;43486;43.574;1.476;2023-02-26T03:32:41;4.18;;;2.20;;
54835;SDS011;43486;43.574;1.476;2023-02-26T03:35:17;4.53;;;2.22;;
54835;SDS011;43486;43.574;1.476;2023-02-26T03:37:57;3.42;;;2.00;;
54835;SDS011;43486;43.574;1.476;2023-02-26T03:40:25;4.80;;;2.28;;
54835;SDS011;43486;43.574;1.476;2023-02-26T03:42:56;3.95;;;2.08;;
54835;SDS011;43486;43.574;1.476;2023-02-26T03:45:30;3.88;;;1.95;;
54835;SDS011;43486;43.574;1.476;2023-02-26T03:47:58;3.80;;;2.20;;
54835;SDS011;43486;43.574;1.476;2023-02-26T03:52:53;5.63;;;2.58;;
54835;SDS011;43486;43.574;1.476;2023-02-26T03:55:24;5.20;;;2.50;;
54835;SDS011;43486;43.574;1.476;2023-02-26T03:57:53;2.80;;;1.73;;
54835;SDS011;43486;43.574;1.476;2023-02-26T04:00:19;2.95;;;2.35;;
54835;SDS011;43486;43.574;1.476;2023-02-26T04:05:21;4.47;;;1.67;;
54835;SDS011;43486;43.574;1.476;2023-02-26T04:07:47;3.53;;;1.80;;
54835;SDS011;43486;43.574;1.476;2023-02-26T04:10:14;3.83;;;2.08;;
54835;SDS011;43486;43.574;1.476;2023-02-26T04:12:41;3.03;;;1.55;;
54835;SDS011;43486;43.574;1.476;2023-02-26T04:15:07;5.97;;;2.13;;
54835;SDS011;43486;43.574;1.476;2023-02-26T04:17:33;3.05;;;1.77;;
54835;SDS011;43486;43.574;1.476;2023-02-26T04:19:58;4.03;;;1.85;;
54835;SDS011;43486;43.574;1.476;2023-02-26T04:22:24;3.22;;;1.65;;
54835;SDS011;43486;43.574;1.476;2023-02-26T04:24:49;5.50;;;1.73;;
54835;SDS011;43486;43.574;1.476;2023-02-26T04:27:14;2.50;;;1.63;;
54835;SDS011;43486;43.574;1.476;2023-02-26T04:29:40;2.80;;;1.83;;
54835;SDS011;43486;43.574;1.476;2023-02-26T04:32:05;2.83;;;1.55;;
54835;SDS011;43486;43.574;1.476;2023-02-26T04:34:30;3.97;;;1.85;;
54835;SDS011;43486;43.574;1.476;2023-02-26T04:36:56;3.13;;;1.75;;
54835;SDS011;43486;43.574;1.476;2023-02-26T04:39:21;2.75;;;1.55;;
54835;SDS011;43486;43.574;1.476;2023-02-26T04:41:47;3.67;;;1.73;;
54835;SDS011;43486;43.574;1.476;2023-02-26T04:44:12;4.35;;;1.48;;
54835;SDS011;43486;43.574;1.476;2023-02-26T04:46:37;5.22;;;1.88;;
54835;SDS011;43486;43.574;1.476;2023-02-26T04:49:03;3.00;;;1.58;;
54835;SDS011;43486;43.574;1.476;2023-02-26T04:51:28;3.00;;;1.58;;
54835;SDS011;43486;43.574;1.476;2023-02-26T04:53:54;4.22;;;1.73;;
54835;SDS011;43486;43.574;1.476;2023-02-26T04:56:19;3.65;;;2.40;;
54835;SDS011;43486;43.574;1.476;2023-02-26T04:58:45;3.88;;;1.90;;
54835;SDS011;43486;43.574;1.476;2023-02-26T05:01:10;6.88;;;1.85;;
54835;SDS011;43486;43.574;1.476;2023-02-26T05:03:37;4.57;;;2.35;;
54835;SDS011;43486;43.574;1.476;2023-02-26T05:06:03;2.70;;;1.42;;
54835;SDS011;43486;43.574;1.476;2023-02-26T05:08:28;2.67;;;1.55;;
54835;SDS011;43486;43.574;1.476;2023-02-26T05:10:54;4.20;;;1.60;;
54835;SDS011;43486;43.574;1.476;2023-02-26T05:13:19;2.95;;;1.42;;
54835;SDS011;43486;43.574;1.476;2023-02-26T05:15:45;3.05;;;1.48;;
54835;SDS011;43486;43.574;1.476;2023-02-26T05:18:10;3.30;;;1.77;;
54835;SDS011;43486;43.574;1.476;2023-02-26T05:20:36;2.92;;;1.58;;
54835;SDS011;43486;43.574;1.476;2023-02-26T05:23:01;2.65;;;1.25;;
54835;SDS011;43486;43.574;1.476;2023-02-26T05:25:26;3.25;;;1.50;;
54835;SDS011;43486;43.574;1.476;2023-02-26T05:27:52;2.50;;;1.58;;
54835;SDS011;43486;43.574;1.476;2023-02-26T05:30:17;1.83;;;1.33;;
54835;SDS011;43486;43.574;1.476;2023-02-26T05:32:43;3.42;;;1.63;;
54835;SDS011;43486;43.574;1.476;2023-02-26T05:35:08;2.92;;;1.95;;
54835;SDS011;43486;43.574;1.476;2023-02-26T05:37:34;2.70;;;1.50;;
54835;SDS011;43486;43.574;1.476;2023-02-26T05:40:00;3.90;;;1.42;;
54835;SDS011;43486;43.574;1.476;2023-02-26T05:42:25;2.83;;;1.50;;
54835;SDS011;43486;43.574;1.476;2023-02-26T05:44:50;3.42;;;2.05;;
54835;SDS011;43486;43.574;1.476;2023-02-26T05:47:16;3.33;;;1.38;;
54835;SDS011;43486;43.574;1.476;2023-02-26T05:49:41;2.72;;;1.52;;
54835;SDS011;43486;43.574;1.476;2023-02-26T05:52:07;3.13;;;1.27;;
54835;SDS011;43486;43.574;1.476;2023-02-26T05:54:32;2.40;;;1.33;;
54835;SDS011;43486;43.574;1.476;2023-02-26T05:56:58;2.00;;;1.50;;
54835;SDS011;43486;43.574;1.476;2023-02-26T05:59:23;3.33;;;1.33;;
54835;SDS011;43486;43.574;1.476;2023-02-26T06:01:49;3.88;;;1.90;;
54835;SDS011;43486;43.574;1.476;2023-02-26T06:04:14;3.47;;;1.55;;
54835;SDS011;43486;43.574;1.476;2023-02-26T06:06:40;3.25;;;1.75;;
54835;SDS011;43486;43.574;1.476;2023-02-26T06:09:05;3.22;;;1.70;;
54835;SDS011;43486;43.574;1.476;2023-02-26T06:11:31;2.17;;;1.45;;
54835;SDS011;43486;43.574;1.476;2023-02-26T06:13:56;3.03;;;1.50;;
54835;SDS011;43486;43.574;1.476;2023-02-26T06:16:22;2.28;;;1.45;;
54835;SDS011;43486;43.574;1.476;2023-02-26T06:18:47;3.00;;;1.60;;
54835;SDS011;43486;43.574;1.476;2023-02-26T06:21:13;3.22;;;1.67;;
54835;SDS011;43486;43.574;1.476;2023-02-26T06:23:39;1.30;;;1.02;;
54835;SDS011;43486;43.574;1.476;2023-02-26T06:26:05;5.05;;;1.50;;
54835;SDS011;43486;43.574;1.476;2023-02-26T06:28:30;2.97;;;1.38;;
54835;SDS011;43486;43.574;1.476;2023-02-26T06:30:56;2.15;;;1.35;;
54835;SDS011;43486;43.574;1.476;2023-02-26T06:33:21;3.90;;;1.45;;
54835;SDS011;43486;43.574;1.476;2023-02-26T06:35:47;2.13;;;1.33;;
54835;SDS011;43486;43.574;1.476;2023-02-26T06:38:12;3.47;;;1.52;;
54835;SDS011;43486;43.574;1.476;2023-02-26T06:40:38;2.95;;;1.70;;
54835;SDS011;43486;43.574;1.476;2023-02-26T06:43:03;5.85;;;1.80;;
54835;SDS011;43486;43.574;1.476;2023-02-26T06:45:29;3.90;;;1.58;;
54835;SDS011;43486;43.574;1.476;2023-02-26T06:47:54;2.10;;;1.20;;
54835;SDS011;43486;43.574;1.476;2023-02-26T06:50:20;1.55;;;1.13;;
54835;SDS011;43486;43.574;1.476;2023-02-26T06:52:45;2.65;;;1.55;;
54835;SDS011;43486;43.574;1.476;2023-02-26T06:55:10;2.40;;;1.40;;
54835;SDS011;43486;43.574;1.476;2023-02-26T06:57:36;3.13;;;1.60;;
54835;SDS011;43486;43.574;1.476;2023-02-26T07:00:02;2.33;;;1.40;;
54835;SDS011;43486;43.574;1.476;2023-02-26T07:02:28;3.60;;;1.60;;
54835;SDS011;43486;43.574;1.476;2023-02-26T07:04:53;2.00;;;1.20;;
54835;SDS011;43486;43.574;1.476;2023-02-26T07:07:19;3.35;;;1.20;;
54835;SDS011;43486;43.574;1.476;2023-02-26T07:09:44;2.60;;;1.25;;
54835;SDS011;43486;43.574;1.476;2023-02-26T07:12:10;4.68;;;1.58;;
54835;SDS011;43486;43.574;1.476;2023-02-26T07:14:35;2.50;;;1.30;;
54835;SDS011;43486;43.574;1.476;2023-02-26T07:17:01;2.05;;;1.20;;
54835;SDS011;43486;43.574;1.476;2023-02-26T07:19:26;1.75;;;1.00;;
54835;SDS011;43486;43.574;1.476;2023-02-26T07:21:52;2.75;;;1.70;;
54835;SDS011;43486;43.574;1.476;2023-02-26T07:24:19;3.42;;;1.88;;
54835;SDS011;43486;43.574;1.476;2023-02-26T07:26:44;3.33;;;1.75;;
54835;SDS011;43486;43.574;1.476;2023-02-26T07:29:10;8.52;;;1.63;;
54835;SDS011;43486;43.574;1.476;2023-02-26T07:31:35;2.45;;;1.52;;
54835;SDS011;43486;43.574;1.476;2023-02-26T07:34:01;2.38;;;1.63;;
54835;SDS011;43486;43.574;1.476;2023-02-26T07:36:26;4.25;;;1.13;;
54835;SDS011;43486;43.574;1.476;2023-02-26T07:38:51;3.75;;;1.77;;
54835;SDS011;43486;43.574;1.476;2023-02-26T07:41:17;2.45;;;1.42;;
54835;SDS011;43486;43.574;1.476;2023-02-26T07:43:42;2.50;;;1.50;;
54835;SDS011;43486;43.574;1.476;2023-02-26T07:46:07;2.33;;;1.30;;
54835;SDS011;43486;43.574;1.476;2023-02-26T07:48:33;3.00;;;1.77;;
54835;SDS011;43486;43.574;1.476;2023-02-26T07:50:59;3.53;;;2.10;;
54835;SDS011;43486;43.574;1.476;2023-02-26T07:53:24;5.32;;;1.35;;
54835;SDS011;43486;43.574;1.476;2023-02-26T07:55:50;2.58;;;1.83;;
54835;SDS011;43486;43.574;1.476;2023-02-26T07:58:15;2.35;;;1.58;;
54835;SDS011;43486;43.574;1.476;2023-02-26T08:00:41;1.98;;;1.20;;
54835;SDS011;43486;43.574;1.476;2023-02-26T08:03:06;5.65;;;1.80;;
54835;SDS011;43486;43.574;1.476;2023-02-26T08:05:32;2.90;;;1.33;;
54835;SDS011;43486;43.574;1.476;2023-02-26T08:07:57;2.22;;;1.27;;
54835;SDS011;43486;43.574;1.476;2023-02-26T08:10:22;3.58;;;1.30;;
54835;SDS011;43486;43.574;1.476;2023-02-26T08:12:48;3.38;;;1.60;;
54835;SDS011;43486;43.574;1.476;2023-02-26T08:15:13;2.13;;;1.23;;
54835;SDS011;43486;43.574;1.476;2023-02-26T08:17:39;2.15;;;1.40;;
54835;SDS011;43486;43.574;1.476;2023-02-26T08:20:05;4.07;;;1.45;;
54835;SDS011;43486;43.574;1.476;2023-02-26T08:22:32;2.42;;;1.60;;
54835;SDS011;43486;43.574;1.476;2023-02-26T08:24:57;1.25;;;1.13;;
54835;SDS011;43486;43.574;1.476;2023-02-26T08:27:23;2.08;;;1.30;;
54835;SDS011;43486;43.574;1.476;2023-02-26T08:29:48;3.35;;;1.63;;
54835;SDS011;43486;43.574;1.476;2023-02-26T08:32:14;3.20;;;1.60;;
54835;SDS011;43486;43.574;1.476;2023-02-26T08:34:40;3.38;;;2.13;;
54835;SDS011;43486;43.574;1.476;2023-02-26T08:37:05;2.72;;;1.40;;
54835;SDS011;43486;43.574;1.476;2023-02-26T08:39:33;2.78;;;1.20;;
54835;SDS011;43486;43.574;1.476;2023-02-26T08:42:02;5.78;;;1.40;;
54835;SDS011;43486;43.574;1.476;2023-02-26T08:44:28;5.80;;;2.45;;
54835;SDS011;43486;43.574;1.476;2023-02-26T08:46:54;2.05;;;1.23;;
54835;SDS011;43486;43.574;1.476;2023-02-26T08:49:20;1.70;;;1.30;;
54835;SDS011;43486;43.574;1.476;2023-02-26T08:51:45;4.57;;;1.17;;
54835;SDS011;43486;43.574;1.476;2023-02-26T08:54:11;6.20;;;1.98;;
54835;SDS011;43486;43.574;1.476;2023-02-26T08:56:36;4.50;;;1.77;;
54835;SDS011;43486;43.574;1.476;2023-02-26T08:59:02;3.25;;;1.20;;
54835;SDS011;43486;43.574;1.476;2023-02-26T09:01:27;2.60;;;1.38;;
54835;SDS011;43486;43.574;1.476;2023-02-26T09:03:53;3.13;;;1.48;;
54835;SDS011;43486;43.574;1.476;2023-02-26T09:06:18;2.97;;;1.35;;
54835;SDS011;43486;43.574;1.476;2023-02-26T09:08:43;4.82;;;2.08;;
54835;SDS011;43486;43.574;1.476;2023-02-26T09:11:09;3.47;;;1.25;;
54835;SDS011;43486;43.574;1.476;2023-02-26T09:13:34;5.13;;;1.33;;
54835;SDS011;43486;43.574;1.476;2023-02-26T09:16:00;4.45;;;1.67;;
54835;SDS011;43486;43.574;1.476;2023-02-26T09:18:25;2.15;;;1.55;;
54835;SDS011;43486;43.574;1.476;2023-02-26T09:20:50;3.95;;;1.83;;
54835;SDS011;43486;43.574;1.476;2023-02-26T09:23:16;5.35;;;1.50;;
54835;SDS011;43486;43.574;1.476;2023-02-26T09:25:41;5.88;;;1.70;;
54835;SDS011;43486;43.574;1.476;2023-02-26T09:28:07;2.67;;;1.45;;
54835;SDS011;43486;43.574;1.476;2023-02-26T09:30:32;4.70;;;1.67;;
54835;SDS011;43486;43.574;1.476;2023-02-26T09:32:58;3.05;;;1.40;;
54835;SDS011;43486;43.574;1.476;2023-02-26T09:35:23;2.92;;;1.33;;
54835;SDS011;43486;43.574;1.476;2023-02-26T09:37:48;2.72;;;1.30;;
54835;SDS011;43486;43.574;1.476;2023-02-26T09:40:29;1.92;;;1.50;;
54835;SDS011;43486;43.574;1.476;2023-02-26T09:43:18;7.25;;;2.10;;
54835;SDS011;43486;43.574;1.476;2023-02-26T09:45:50;6.10;;;1.65;;
54835;SDS011;43486;43.574;1.476;2023-02-26T09:48:18;2.70;;;1.25;;
54835;SDS011;43486;43.574;1.476;2023-02-26T09:50:46;10.02;;;2.63;;
54835;SDS011;43486;43.574;1.476;2023-02-26T09:53:23;2.92;;;1.98;;
54835;SDS011;43486;43.574;1.476;2023-02-26T09:56:02;4.75;;;1.80;;
54835;SDS011;43486;43.574;1.476;2023-02-26T09:58:31;2.47;;;1.15;;
54835;SDS011;43486;43.574;1.476;2023-02-26T10:01:18;3.85;;;1.83;;
54835;SDS011;43486;43.574;1.476;2023-02-26T10:12:11;9.45;;;3.03;;
54835;SDS011;43486;43.574;1.476;2023-02-26T10:14:41;6.82;;;2.50;;
54835;SDS011;43486;43.574;1.476;2023-02-26T10:17:15;11.32;;;3.42;;
54835;SDS011;43486;43.574;1.476;2023-02-26T10:19:48;7.65;;;3.53;;
54835;SDS011;43486;43.574;1.476;2023-02-26T10:22:27;10.40;;;3.42;;
54835;SDS011;43486;43.574;1.476;2023-02-26T10:25:14;5.80;;;3.03;;
54835;SDS011;43486;43.574;1.476;2023-02-26T10:33:07;11.30;;;2.75;;
54835;SDS011;43486;43.574;1.476;2023-02-26T10:35:51;4.63;;;2.97;;
54835;SDS011;43486;43.574;1.476;2023-02-26T10:38:19;8.00;;;3.25;;
54835;SDS011;43486;43.574;1.476;2023-02-26T10:40:52;6.30;;;2.60;;
54835;SDS011;43486;43.574;1.476;2023-02-26T10:43:31;4.25;;;2.17;;
54835;SDS011;43486;43.574;1.476;2023-02-26T10:46:09;5.60;;;3.28;;
54835;SDS011;43486;43.574;1.476;2023-02-26T10:51:45;7.00;;;1.92;;
54835;SDS011;43486;43.574;1.476;2023-02-26T10:57:26;3.95;;;1.85;;
54835;SDS011;43486;43.574;1.476;2023-02-26T10:59:57;9.77;;;2.50;;
54835;SDS011;43486;43.574;1.476;2023-02-26T11:02:34;10.05;;;2.63;;
54835;SDS011;43486;43.574;1.476;2023-02-26T11:05:02;6.50;;;2.42;;
54835;SDS011;43486;43.574;1.476;2023-02-26T11:07:29;9.50;;;2.90;;
54835;SDS011;43486;43.574;1.476;2023-02-26T11:09:55;8.95;;;1.83;;
54835;SDS011;43486;43.574;1.476;2023-02-26T11:12:21;10.13;;;2.70;;
54835;SDS011;43486;43.574;1.476;2023-02-26T11:14:48;6.85;;;2.33;;
54835;SDS011;43486;43.574;1.476;2023-02-26T11:17:32;4.38;;;1.88;;
54835;SDS011;43486;43.574;1.476;2023-02-26T11:19:58;4.78;;;1.83;;
54835;SDS011;43486;43.574;1.476;2023-02-26T11:22:27;4.80;;;2.42;;
54835;SDS011;43486;43.574;1.476;2023-02-26T11:24:55;16.92;;;2.35;;
54835;SDS011;43486;43.574;1.476;2023-02-26T11:27:31;4.82;;;2.35;;
54835;SDS011;43486;43.574;1.476;2023-02-26T11:30:04;2.60;;;1.80;;
54835;SDS011;43486;43.574;1.476;2023-02-26T11:32:40;11.63;;;3.05;;
54835;SDS011;43486;43.574;1.476;2023-02-26T11:35:12;9.25;;;3.25;;
54835;SDS011;43486;43.574;1.476;2023-02-26T11:37:38;2.40;;;1.58;;
54835;SDS011;43486;43.574;1.476;2023-02-26T11:40:06;6.85;;;2.47;;
54835;SDS011;43486;43.574;1.476;2023-02-26T11:42:48;7.07;;;2.28;;
54835;SDS011;43486;43.574;1.476;2023-02-26T11:45:17;5.85;;;2.17;;
54835;SDS011;43486;43.574;1.476;2023-02-26T11:47:43;2.50;;;1.50;;
54835;SDS011;43486;43.574;1.476;2023-02-26T11:50:13;3.83;;;1.67;;
54835;SDS011;43486;43.574;1.476;2023-02-26T11:52:41;4.38;;;2.20;;
54835;SDS011;43486;43.574;1.476;2023-02-26T11:57:53;3.83;;;1.55;;
54835;SDS011;43486;43.574;1.476;2023-02-26T12:00:28;5.30;;;2.33;;
54835;SDS011;43486;43.574;1.476;2023-02-26T12:02:59;7.88;;;2.45;;
54835;SDS011;43486;43.574;1.476;2023-02-26T12:05:29;6.78;;;2.88;;
54835;SDS011;43486;43.574;1.476;2023-02-26T12:07:55;5.57;;;2.25;;
54835;SDS011;43486;43.574;1.476;2023-02-26T12:10:26;6.82;;;1.75;;
54835;SDS011;43486;43.574;1.476;2023-02-26T12:13:16;4.25;;;1.65;;
54835;SDS011;43486;43.574;1.476;2023-02-26T12:15:55;2.50;;;1.20;;
54835;SDS011;43486;43.574;1.476;2023-02-26T12:18:43;3.30;;;1.50;;
54835;SDS011;43486;43.574;1.476;2023-02-26T12:32:16;14.93;;;7.82;;
54835;SDS011;43486;43.574;1.476;2023-02-26T12:35:02;11.68;;;6.95;;
54835;SDS011;43486;43.574;1.476;2023-02-26T12:43:31;23.75;;;14.50;;
54835;SDS011;43486;43.574;1.476;2023-02-26T12:54:43;21.38;;;14.50;;
54835;SDS011;43486;43.574;1.476;2023-02-26T13:00:20;31.55;;;15.80;;
54835;SDS011;43486;43.574;1.476;2023-02-26T13:09:00;15.10;;;7.30;;
54835;SDS011;43486;43.574;1.476;2023-02-26T13:17:11;9.55;;;3.60;;
54835;SDS011;43486;43.574;1.476;2023-02-26T13:19:45;7.22;;;3.17;;
54835;SDS011;43486;43.574;1.476;2023-02-26T13:24:43;7.28;;;3.83;;
54835;SDS011;43486;43.574;1.476;2023-02-26T13:27:11;8.70;;;3.53;;
54835;SDS011;43486;43.574;1.476;2023-02-26T13:29:50;6.03;;;3.22;;
54835;SDS011;43486;43.574;1.476;2023-02-26T13:32:33;8.32;;;2.92;;
54835;SDS011;43486;43.574;1.476;2023-02-26T13:35:02;6.30;;;2.53;;
54835;SDS011;43486;43.574;1.476;2023-02-26T13:37:38;4.82;;;2.42;;
54835;SDS011;43486;43.574;1.476;2023-02-26T13:45:54;10.90;;;3.00;;
54835;SDS011;43486;43.574;1.476;2023-02-26T13:51:14;5.07;;;2.15;;
54835;SDS011;43486;43.574;1.476;2023-02-26T14:04:22;7.18;;;2.30;;
54835;SDS011;43486;43.574;1.476;2023-02-26T14:10:27;4.25;;;1.85;;
54835;SDS011;43486;43.574;1.476;2023-02-26T14:12:33;4.68;;;2.10;;
54835;SDS011;43486;43.574;1.476;2023-02-26T14:20:15;4.93;;;1.95;;
54835;SDS011;43486;43.574;1.476;2023-02-26T14:22:52;5.63;;;1.95;;
54835;SDS011;43486;43.574;1.476;2023-02-26T14:25:37;3.75;;;1.88;;
54835;SDS011;43486;43.574;1.476;2023-02-26T14:30:50;3.30;;;1.95;;
54835;SDS011;43486;43.574;1.476;2023-02-26T14:33:39;6.15;;;2.85;;
54835;SDS011;43486;43.574;1.476;2023-02-26T14:36:35;4.68;;;1.88;;
54835;SDS011;43486;43.574;1.476;2023-02-26T14:39:04;5.18;;;1.77;;
54835;SDS011;43486;43.574;1.476;2023-02-26T14:41:31;4.68;;;2.15;;
54835;SDS011;43486;43.574;1.476;2023-02-26T14:44:04;10.65;;;2.30;;
54835;SDS011;43486;43.574;1.476;2023-02-26T14:46:31;3.08;;;1.90;;
54835;SDS011;43486;43.574;1.476;2023-02-26T14:48:58;9.13;;;2.28;;
54835;SDS011;43486;43.574;1.476;2023-02-26T14:54:17;6.70;;;1.80;;
54835;SDS011;43486;43.574;1.476;2023-02-26T14:57:21;4.85;;;2.33;;
54835;SDS011;43486;43.574;1.476;2023-02-26T15:19:07;6.57;;;1.88;;
54835;SDS011;43486;43.574;1.476;2023-02-26T15:24:36;5.05;;;1.42;;
54835;SDS011;43486;43.574;1.476;2023-02-26T15:27:02;11.02;;;1.95;;
54835;SDS011;43486;43.574;1.476;2023-02-26T15:29:31;6.00;;;2.42;;
54835;SDS011;43486;43.574;1.476;2023-02-26T15:32:04;4.72;;;1.65;;
54835;SDS011;43486;43.574;1.476;2023-02-26T15:34:44;5.68;;;2.17;;
54835;SDS011;43486;43.574;1.476;2023-02-26T15:37:18;5.53;;;2.28;;
54835;SDS011;43486;43.574;1.476;2023-02-26T15:39:47;3.67;;;1.67;;
54835;SDS011;43486;43.574;1.476;2023-02-26T15:42:16;5.65;;;1.75;;
54835;SDS011;43486;43.574;1.476;2023-02-26T15:44:43;10.80;;;2.03;;
54835;SDS011;43486;43.574;1.476;2023-02-26T15:47:10;10.48;;;2.25;;
54835;SDS011;43486;43.574;1.476;2023-02-26T15:49:39;4.20;;;1.90;;
54835;SDS011;43486;43.574;1.476;2023-02-26T15:52:07;4.25;;;1.40;;
54835;SDS011;43486;43.574;1.476;2023-02-26T15:54:42;4.07;;;1.83;;
54835;SDS011;43486;43.574;1.476;2023-02-26T15:57:10;5.35;;;2.20;;
54835;SDS011;43486;43.574;1.476;2023-02-26T15:59:39;7.28;;;2.35;;
54835;SDS011;43486;43.574;1.476;2023-02-26T16:02:14;4.57;;;1.88;;
54835;SDS011;43486;43.574;1.476;2023-02-26T16:04:42;4.00;;;1.85;;
54835;SDS011;43486;43.574;1.476;2023-02-26T16:07:08;9.32;;;1.67;;
54835;SDS011;43486;43.574;1.476;2023-02-26T16:09:37;5.85;;;1.65;;
54835;SDS011;43486;43.574;1.476;2023-02-26T16:12:09;4.93;;;1.52;;
54835;SDS011;43486;43.574;1.476;2023-02-26T16:14:40;7.55;;;1.75;;
54835;SDS011;43486;43.574;1.476;2023-02-26T16:17:10;2.80;;;1.73;;
54835;SDS011;43486;43.574;1.476;2023-02-26T16:22:15;6.28;;;2.20;;
54835;SDS011;43486;43.574;1.476;2023-02-26T16:24:42;15.68;;;1.65;;
54835;SDS011;43486;43.574;1.476;2023-02-26T16:27:08;2.65;;;1.48;;
54835;SDS011;43486;43.574;1.476;2023-02-26T16:29:36;4.85;;;1.80;;
54835;SDS011;43486;43.574;1.476;2023-02-26T16:32:12;5.70;;;1.70;;
54835;SDS011;43486;43.574;1.476;2023-02-26T16:34:41;3.72;;;2.10;;
54835;SDS011;43486;43.574;1.476;2023-02-26T16:37:33;7.10;;;1.20;;
54835;SDS011;43486;43.574;1.476;2023-02-26T16:43:51;3.28;;;1.50;;
54835;SDS011;43486;43.574;1.476;2023-02-26T16:46:03;2.50;;;1.48;;
54835;SDS011;43486;43.574;1.476;2023-02-26T16:50:56;4.25;;;1.92;;
54835;SDS011;43486;43.574;1.476;2023-02-26T16:53:28;3.47;;;1.73;;
54835;SDS011;43486;43.574;1.476;2023-02-26T16:55:58;8.00;;;2.80;;
54835;SDS011;43486;43.574;1.476;2023-02-26T16:58:24;7.97;;;2.28;;
54835;SDS011;43486;43.574;1.476;2023-02-26T17:00:51;3.88;;;1.80;;
54835;SDS011;43486;43.574;1.476;2023-02-26T17:03:24;3.63;;;1.63;;
54835;SDS011;43486;43.574;1.476;2023-02-26T17:06:01;4.85;;;2.33;;
54835;SDS011;43486;43.574;1.476;2023-02-26T17:08:32;2.70;;;1.45;;
54835;SDS011;43486;43.574;1.476;2023-02-26T17:11:03;19.10;;;2.72;;
54835;SDS011;43486;43.574;1.476;2023-02-26T17:13:31;4.40;;;1.50;;
54835;SDS011;43486;43.574;1.476;2023-02-26T17:15:58;5.93;;;1.92;;
54835;SDS011;43486;43.574;1.476;2023-02-26T17:18:26;6.68;;;2.35;;
54835;SDS011;43486;43.574;1.476;2023-02-26T17:20:52;6.70;;;2.40;;
54835;SDS011;43486;43.574;1.476;2023-02-26T17:23:17;9.38;;;1.20;;
54835;SDS011;43486;43.574;1.476;2023-02-26T17:25:47;3.83;;;1.70;;
54835;SDS011;43486;43.574;1.476;2023-02-26T17:28:16;5.35;;;2.22;;
54835;SDS011;43486;43.574;1.476;2023-02-26T17:30:45;4.13;;;1.65;;
54835;SDS011;43486;43.574;1.476;2023-02-26T17:33:11;4.13;;;2.10;;
54835;SDS011;43486;43.574;1.476;2023-02-26T17:35:37;3.30;;;1.48;;
54835;SDS011;43486;43.574;1.476;2023-02-26T17:38:02;13.82;;;2.03;;
54835;SDS011;43486;43.574;1.476;2023-02-26T17:40:29;6.95;;;2.40;;
54835;SDS011;43486;43.574;1.476;2023-02-26T17:43:00;8.43;;;1.75;;
54835;SDS011;43486;43.574;1.476;2023-02-26T17:45:27;6.20;;;1.58;;
54835;SDS011;43486;43.574;1.476;2023-02-26T17:47:53;6.10;;;1.50;;
54835;SDS011;43486;43.574;1.476;2023-02-26T17:50:24;4.15;;;1.42;;
54835;SDS011;43486;43.574;1.476;2023-02-26T17:55:39;3.50;;;0.98;;
54835;SDS011;43486;43.574;1.476;2023-02-26T17:58:13;5.75;;;1.52;;
54835;SDS011;43486;43.574;1.476;2023-02-26T18:00:46;8.50;;;1.80;;
54835;SDS011;43486;43.574;1.476;2023-02-26T18:03:13;9.90;;;2.50;;
54835;SDS011;43486;43.574;1.476;2023-02-26T18:05:39;2.83;;;1.48;;
54835;SDS011;43486;43.574;1.476;2023-02-26T18:08:05;5.68;;;2.05;;